Time;durP1;ratioP1;P1;durP2;ratioP2;P2;SDS_P1;SDS_P2;PMS_P1;PMS_P2;Temp;Humidity;BMP_temperature;BMP_pressure;BME280_temperature;BME280_humidity;BME280_pressure;Samples;Min_cycle;Max_cycle;Signal;HPM_P1;HPM_P2
2023/09/18 00:00:01;;;;;;;;;;;;;;;23.37;54.04;99065.78;67882;1276;1016597;-65
2023/09/18 00:03:04;;;;;;;20.20;8.00;;;;;;;23.34;54.16;99064.16;67907;1276;1016412;-66
2023/09/18 00:06:08;;;;;;;;;;;;;;;23.29;54.58;99066.33;67867;1276;1016323;-66
2023/09/18 00:09:13;;;;;;;18.10;6.20;;;;;;;23.23;54.82;99062.70;67862;1276;1016491;-66
2023/09/18 00:12:15;;;;;;;16.50;5.90;;;;;;;23.30;54.43;99059.64;67901;1276;1016021;-65
2023/09/18 00:15:18;;;;;;;;;;;;;;;23.34;54.18;99062.45;67950;1276;1015856;-65
2023/09/18 00:18:21;;;;;;;13.50;5.00;;;;;;;23.21;54.53;99062.93;67942;1276;1016146;-65
2023/09/18 00:21:25;;;;;;;16.10;5.10;;;;;;;23.18;54.50;99061.66;67871;1276;1016500;-65
2023/09/18 00:24:27;;;;;;;19.20;6.70;;;;;;;23.15;54.42;99056.45;67920;1276;1016350;-66
2023/09/18 00:27:30;;;;;;;;;;;;;;;23.17;54.43;99054.98;67910;1276;1016141;-66
2023/09/18 00:30:32;;;;;;;19.00;7.10;;;;;;;23.09;54.47;99054.23;67912;1276;1016494;-65
2023/09/18 00:33:34;;;;;;;19.40;6.90;;;;;;;23.07;54.34;99054.67;67898;1276;1016443;-66
2023/09/18 00:36:37;;;;;;;;;;;;;;;23.04;54.50;99057.84;67898;1276;1016936;-65
2023/09/18 00:39:39;;;;;;;16.40;4.70;;;;;;;23.08;54.42;99059.86;67867;1276;1016757;-65
2023/09/18 00:42:41;;;;;;;14.10;4.30;;;;;;;22.99;54.36;99058.36;67915;1276;1017377;-65
2023/09/18 00:45:44;;;;;;;11.30;3.90;;;;;;;22.96;54.53;99054.20;67920;1276;1016483;-65
2023/09/18 00:48:46;;;;;;;15.90;5.40;;;;;;;22.94;54.50;99057.14;67908;1276;1016747;-67
2023/09/18 00:51:49;;;;;;;;;;;;;;;22.77;54.82;99061.21;67902;1276;1016444;-66
2023/09/18 00:54:52;;;;;;;19.80;7.10;;;;;;;22.71;54.67;99058.17;67871;1276;1016231;-68
2023/09/18 00:57:54;;;;;;;18.00;7.00;;;;;;;22.70;54.74;99058.41;67917;1276;1015818;-67
2023/09/18 01:00:56;;;;;;;19.20;7.30;;;;;;;22.77;54.80;99057.70;67911;1276;1016280;-66
2023/09/18 01:03:59;;;;;;;16.90;6.40;;;;;;;22.62;55.44;99055.69;67888;1276;1016532;-67
2023/09/18 01:07:03;;;;;;;20.90;8.20;;;;;;;22.57;55.39;99058.38;67881;1276;1016297;-66
2023/09/18 01:10:05;;;;;;;25.80;10.00;;;;;;;22.52;55.57;99058.61;67857;1276;1017564;-66
2023/09/18 01:13:13;;;;;;;;;;;;;;;22.54;55.36;99054.65;67875;1276;1016043;-66
2023/09/18 01:16:15;;;;;;;20.70;7.80;;;;;;;22.59;55.21;99055.55;67878;1276;1016445;-65
2023/09/18 01:19:17;;;;;;;22.60;9.40;;;;;;;22.73;55.01;99055.96;67890;1276;1017319;-66
2023/09/18 01:22:21;;;;;;;26.40;9.40;;;;;;;22.66;54.78;99053.28;67870;1276;1016079;-66
2023/09/18 01:25:23;;;;;;;20.20;7.70;;;;;;;22.66;54.88;99050.08;67866;1276;1016265;-65
2023/09/18 01:28:26;;;;;;;24.40;8.20;;;;;;;22.75;54.68;99051.16;67905;1276;1016501;-65
2023/09/18 01:31:28;;;;;;;21.10;8.10;;;;;;;22.74;54.65;99051.73;67931;1276;1019855;-65
2023/09/18 01:34:33;;;;;;;18.80;7.10;;;;;;;22.76;54.54;99054.23;67901;1276;1016482;-66
2023/09/18 01:37:35;;;;;;;20.30;7.20;;;;;;;22.87;54.28;99053.23;67877;1276;1016206;-66
2023/09/18 01:40:37;;;;;;;;;;;;;;;22.85;54.33;99049.83;67882;1276;1016369;-65
2023/09/18 01:43:40;;;;;;;24.00;9.70;;;;;;;22.76;54.34;99051.19;67891;1276;1016238;-65
2023/09/18 01:46:42;;;;;;;;;;;;;;;22.75;54.50;99055.80;67888;1276;1016348;-66
2023/09/18 01:49:46;;;;;;;21.90;8.10;;;;;;;22.77;54.53;99058.01;67877;1276;1016446;-65
2023/09/18 01:52:48;;;;;;;23.60;9.70;;;;;;;22.74;54.71;99058.38;67872;1276;1016006;-66
2023/09/18 01:55:51;;;;;;;22.60;7.40;;;;;;;22.72;54.88;99059.47;67915;1276;1016041;-65
2023/09/18 01:58:53;;;;;;;;;;;;;;;22.79;54.76;99054.20;67919;1276;1016647;-65
2023/09/18 02:01:55;;;;;;;20.80;8.00;;;;;;;22.92;54.79;99054.43;67927;1276;1016407;-67
2023/09/18 02:04:58;;;;;;;20.80;7.90;;;;;;;23.00;54.67;99056.98;67897;1276;1015936;-67
2023/09/18 02:08:00;;;;;;;23.10;8.70;;;;;;;23.10;54.45;99052.36;67881;1276;1016541;-66
2023/09/18 02:11:04;;;;;;;20.20;8.10;;;;;;;23.23;54.27;99051.83;67895;1276;1016354;-66
2023/09/18 02:14:06;;;;;;;22.60;8.70;;;;;;;23.31;54.40;99052.59;67861;1276;1016257;-66
2023/09/18 02:17:09;;;;;;;;;;;;;;;23.40;54.39;99048.02;67897;1276;1016235;-65
2023/09/18 02:20:11;;;;;;;19.00;7.20;;;;;;;23.44;54.40;99046.81;67900;1276;1016057;-66
2023/09/18 02:23:14;;;;;;;17.90;6.60;;;;;;;23.45;54.66;99048.46;67922;1276;1016721;-65
2023/09/18 02:26:16;;;;;;;20.20;7.60;;;;;;;23.54;54.89;99048.78;67877;1276;1016028;-65
2023/09/18 02:29:18;;;;;;;;;;;;;;;23.66;54.88;99052.06;67873;1276;1016478;-66
2023/09/18 02:32:21;;;;;;;21.70;8.40;;;;;;;23.51;55.05;99054.23;67870;1276;1017021;-65
2023/09/18 02:35:23;;;;;;;20.20;7.60;;;;;;;23.42;55.18;99049.55;67921;1276;1016445;-65
2023/09/18 02:38:25;;;;;;;22.90;8.60;;;;;;;23.53;55.21;99045.14;67933;1276;1015705;-68
2023/09/18 02:41:28;;;;;;;;;;;;;;;23.67;55.20;99042.29;67948;1276;1016223;-68
2023/09/18 02:44:30;;;;;;;21.80;9.50;;;;;;;23.76;55.42;99039.64;67913;1276;1016571;-65
2023/09/18 02:47:33;;;;;;;21.70;8.90;;;;;;;24.07;54.41;99043.71;67871;1276;1016431;-66
2023/09/18 02:50:36;;;;;;;21.20;8.60;;;;;;;24.13;54.03;99045.94;67896;1276;1016439;-65
2023/09/18 02:53:38;;;;;;;;;;;;;;;24.12;53.95;99047.27;67908;1276;1016410;-66
2023/09/18 02:56:40;;;;;;;24.80;10.60;;;;;;;24.15;54.43;99043.31;67884;1276;1016465;-65
2023/09/18 02:59:43;;;;;;;27.10;11.90;;;;;;;24.29;54.50;99042.59;67913;1276;1016583;-66
2023/09/18 03:02:45;;;;;;;22.70;9.80;;;;;;;24.45;54.26;99041.05;67912;1276;1016109;-65
2023/09/18 03:05:48;;;;;;;;;;;;;;;24.37;54.24;99043.98;67928;1276;1016305;-65
2023/09/18 03:08:50;;;;;;;24.10;10.10;;;;;;;24.34;54.13;99035.63;67911;1276;1016462;-66
2023/09/18 03:11:52;;;;;;;22.50;10.30;;;;;;;24.30;54.28;99029.73;67877;1276;1016734;-65
2023/09/18 03:14:55;;;;;;;23.90;10.60;;;;;;;24.19;54.79;99031.46;67889;1276;1016783;-67
2023/09/18 03:17:57;;;;;;;24.50;10.90;;;;;;;24.15;54.96;99031.05;67877;1276;1016347;-65
2023/09/18 03:20:59;;;;;;;23.40;10.70;;;;;;;24.08;55.44;99032.92;67927;1276;1016334;-66
2023/09/18 03:24:02;;;;;;;24.40;11.20;;;;;;;24.18;55.31;99025.13;67912;1276;1018282;-66
2023/09/18 03:27:05;;;;;;;27.90;12.20;;;;;;;24.24;55.34;99024.70;67878;1276;1016430;-65
2023/09/18 03:30:07;;;;;;;;;;;;;;;24.18;55.20;99019.65;67891;1276;1016605;-65
2023/09/18 03:33:10;;;;;;;;;;;;;;;24.14;55.30;99017.19;67917;1276;1016177;-65
2023/09/18 03:36:13;;;;;;;25.10;12.10;;;;;;;24.14;55.51;99019.33;67945;1276;1016232;-66
2023/09/18 03:39:16;;;;;;;26.60;11.90;;;;;;;24.13;55.57;99027.81;67909;1276;1016289;-65
2023/09/18 03:42:18;;;;;;;24.00;11.30;;;;;;;24.21;55.38;99023.58;67919;1276;1016375;-65
2023/09/18 03:45:21;;;;;;;;;;;;;;;24.17;55.37;99022.92;67944;1276;1016980;-65
2023/09/18 03:48:23;;;;;;;24.70;12.30;;;;;;;24.12;55.38;99019.74;67877;1276;1016524;-65
2023/09/18 03:51:25;;;;;;;26.90;12.90;;;;;;;24.07;55.45;99014.78;67885;1276;1016332;-65
2023/09/18 03:54:28;;;;;;;25.20;11.80;;;;;;;23.97;55.64;99009.31;67881;1253;1019958;-66
2023/09/18 03:57:30;;;;;;;;;;;;;;;23.94;55.61;99003.60;67914;1276;1016478;-65
2023/09/18 04:00:32;;;;;;;26.00;12.70;;;;;;;23.90;55.88;99002.61;67913;1276;1016500;-65
2023/09/18 04:03:35;;;;;;;29.50;12.20;;;;;;;23.83;55.95;99005.89;67904;1276;1016648;-65
2023/09/18 04:06:37;;;;;;;28.30;12.70;;;;;;;23.83;55.86;99004.44;67870;1276;1016178;-66
2023/09/18 04:09:39;;;;;;;;;;;;;;;23.90;55.70;98998.73;67846;1276;1015843;-65
2023/09/18 04:12:42;;;;;;;25.70;12.40;;;;;;;23.95;55.40;98991.34;67886;1276;1016386;-65
2023/09/18 04:15:45;;;;;;;25.70;13.50;;;;;;;23.85;55.65;98998.13;67932;1276;1016432;-65
2023/09/18 04:18:48;;;;;;;30.60;13.90;;;;;;;23.87;55.73;98998.84;67866;1253;1016368;-65
2023/09/18 04:21:50;;;;;;;25.10;12.90;;;;;;;23.88;55.64;98995.32;67923;1276;1016346;-67
2023/09/18 04:24:53;;;;;;;;;;;;;;;23.83;55.72;99000.92;67911;1276;1016548;-65
2023/09/18 04:27:56;;;;;;;25.40;12.70;;;;;;;23.79;55.78;99000.63;67858;1276;1016172;-65
2023/09/18 04:30:59;;;;;;;25.10;12.20;;;;;;;23.79;55.51;98996.84;67915;1276;1018279;-66
2023/09/18 04:34:02;;;;;;;;;;;;;;;23.82;55.60;98991.30;67869;1276;1016488;-66
2023/09/18 04:37:04;;;;;;;;;;;;;;;23.79;55.58;98988.45;67897;1276;1016043;-64
2023/09/18 04:40:09;;;;;;;27.30;13.20;;;;;;;23.80;55.61;98990.02;67895;1276;1019553;-65
2023/09/18 04:43:11;;;;;;;26.00;13.10;;;;;;;23.85;55.43;98985.15;67905;1276;1016104;-65
2023/09/18 04:46:14;;;;;;;;;;;;;;;23.78;55.53;98983.77;67875;1276;1016556;-66
2023/09/18 04:49:16;;;;;;;26.00;13.00;;;;;;;23.75;55.84;98982.17;67869;1276;1016203;-65
2023/09/18 04:52:19;;;;;;;23.80;12.10;;;;;;;23.81;55.80;98977.89;67910;1276;1016103;-65
2023/09/18 04:55:21;;;;;;;24.90;12.50;;;;;;;23.89;55.72;98979.33;67921;1276;1016477;-65
2023/09/18 04:58:24;;;;;;;26.50;12.80;;;;;;;23.90;55.52;98975.84;67859;1276;1016924;-65
2023/09/18 05:01:26;;;;;;;;;;;;;;;23.91;55.55;98977.25;67879;1276;1016166;-65
2023/09/18 05:04:28;;;;;;;25.50;12.80;;;;;;;24.03;55.66;98974.35;67917;1276;1016295;-67
2023/09/18 05:07:31;;;;;;;24.50;13.00;;;;;;;24.10;55.70;98970.36;67915;1276;1016395;-65
2023/09/18 05:10:33;;;;;;;25.60;12.90;;;;;;;24.11;55.92;98968.36;67913;1276;1016402;-65
2023/09/18 05:13:36;;;;;;;;;;;;;;;24.19;56.03;98971.40;67891;1276;1016445;-64
2023/09/18 05:16:38;;;;;;;26.60;13.70;;;;;;;24.23;56.06;98970.77;67869;1276;1016979;-66
2023/09/18 05:19:40;;;;;;;27.00;13.20;;;;;;;24.40;55.78;98965.45;67880;1276;1017466;-65
2023/09/18 05:22:43;;;;;;;;;;;;;;;24.53;55.72;98960.33;67936;1276;1018069;-65
2023/09/18 05:25:45;;;;;;;27.90;13.80;;;;;;;24.67;55.44;98957.18;67931;1276;1016481;-64
2023/09/18 05:28:47;;;;;;;25.70;13.10;;;;;;;24.72;55.49;98953.82;67873;1276;1016379;-68
2023/09/18 05:31:50;;;;;;;;;;;;;;;24.91;55.66;98955.92;67886;1276;1016384;-66
2023/09/18 05:34:52;;;;;;;25.30;13.10;;;;;;;25.26;54.95;98956.89;67846;1276;1016476;-67
2023/09/18 05:37:56;;;;;;;27.20;12.70;;;;;;;25.55;54.36;98958.29;67879;1276;1016500;-65
2023/09/18 05:40:59;;;;;;;24.00;12.10;;;;;;;25.71;54.24;98955.52;67912;1276;1017476;-67
2023/09/18 05:44:03;;;;;;;;;;;;;;;25.92;54.28;98955.52;67903;1276;1016044;-66
2023/09/18 05:47:06;;;;;;;23.60;11.40;;;;;;;26.18;53.84;98956.00;67850;1276;1016493;-64
2023/09/18 05:50:08;;;;;;;;;;;;;;;26.27;53.67;98956.27;67850;1276;1016430;-65
2023/09/18 05:53:10;;;;;;;26.40;11.90;;;;;;;26.42;53.60;98956.86;67871;1276;1016945;-65
2023/09/18 05:56:14;;;;;;;22.90;10.80;;;;;;;26.60;53.46;98953.20;67916;1276;1017025;-64
2023/09/18 05:59:18;;;;;;;24.00;11.00;;;;;;;26.87;53.02;98947.93;67857;1276;1016550;-66
2023/09/18 06:02:21;;;;;;;22.50;10.80;;;;;;;27.09;52.58;98944.85;67901;1276;1016814;-65
2023/09/18 06:05:24;;;;;;;21.60;10.20;;;;;;;27.23;52.46;98950.23;67843;1276;1019639;-67
2023/09/18 06:08:28;;;;;;;23.20;10.10;;;;;;;27.40;52.13;98947.04;67892;1276;1016327;-65
2023/09/18 06:11:30;;;;;;;22.00;10.30;;;;;;;27.56;52.07;98944.95;67879;1276;1018842;-65
2023/09/18 06:14:34;;;;;;;22.20;10.50;;;;;;;27.79;51.61;98947.65;67899;1276;1016318;-65
2023/09/18 06:17:38;;;;;;;22.70;9.90;;;;;;;27.86;51.56;98943.20;67911;1276;1016363;-65
2023/09/18 06:20:41;;;;;;;21.60;10.00;;;;;;;28.00;51.44;98947.31;67859;1276;1016595;-65
2023/09/18 06:23:43;;;;;;;21.70;9.10;;;;;;;28.23;51.03;98945.79;67899;1276;1016366;-65
2023/09/18 06:26:45;;;;;;;21.90;9.30;;;;;;;28.46;50.76;98939.63;67903;1276;1016985;-65
2023/09/18 06:29:48;;;;;;;22.10;9.30;;;;;;;28.60;50.29;98934.88;67871;1276;1016854;-66
2023/09/18 06:32:50;;;;;;;20.80;8.80;;;;;;;28.77;50.38;98934.30;67841;1276;1015934;-66
2023/09/18 06:35:52;;;;;;;20.60;9.00;;;;;;;29.03;49.91;98931.63;67869;1276;1016279;-65
2023/09/18 06:38:55;;;;;;;21.80;9.30;;;;;;;29.11;49.81;98931.52;67929;1276;1016195;-65
2023/09/18 06:41:57;;;;;;;19.70;8.90;;;;;;;29.31;49.14;98928.81;67913;1276;1016446;-66
2023/09/18 06:45:01;;;;;;;23.40;9.80;;;;;;;29.42;48.95;98932.84;67881;1276;1016029;-65
2023/09/18 06:48:03;;;;;;;20.10;8.30;;;;;;;29.58;49.07;98928.33;67871;1276;1016417;-65
2023/09/18 06:51:06;;;;;;;20.90;8.50;;;;;;;29.80;48.15;98925.45;67926;1276;1017285;-64
2023/09/18 06:54:08;;;;;;;21.30;8.50;;;;;;;29.86;47.49;98924.31;67873;1276;1015807;-66
2023/09/18 06:57:11;;;;;;;19.50;8.60;;;;;;;29.96;47.66;98926.83;67846;1276;1016868;-65
2023/09/18 07:00:14;;;;;;;20.50;9.00;;;;;;;30.14;47.35;98929.13;67864;1276;1016263;-64
2023/09/18 07:03:17;;;;;;;21.30;8.70;;;;;;;30.40;46.82;98933.20;67859;1276;1016014;-67
2023/09/18 07:06:21;;;;;;;20.00;8.30;;;;;;;30.48;46.72;98933.34;67887;1276;1016410;-66
2023/09/18 07:09:24;;;;;;;20.90;8.70;;;;;;;30.64;46.34;98936.14;67850;1276;1015760;-67
2023/09/18 07:12:26;;;;;;;21.70;8.30;;;;;;;30.87;46.32;98934.89;67863;1276;1016419;-66
2023/09/18 07:15:30;;;;;;;22.40;8.60;;;;;;;31.16;46.28;98934.66;67878;1276;1016438;-66
2023/09/18 07:18:32;;;;;;;20.90;8.30;;;;;;;31.38;45.89;98932.45;67886;1276;1016480;-66
2023/09/18 07:21:36;;;;;;;19.90;8.50;;;;;;;31.43;45.96;98932.52;67859;1276;1016457;-66
2023/09/18 07:24:40;;;;;;;19.80;8.00;;;;;;;31.63;45.14;98934.04;67880;1276;1016745;-66
2023/09/18 07:27:44;;;;;;;20.90;8.30;;;;;;;31.68;44.92;98933.32;67816;1276;1016256;-66
2023/09/18 07:30:46;;;;;;;19.10;8.10;;;;;;;31.87;44.52;98926.94;67888;1276;1019211;-64
2023/09/18 07:33:49;;;;;;;20.00;9.00;;;;;;;31.89;43.91;98926.33;67895;1276;1016505;-65
2023/09/18 07:36:54;;;;;;;21.40;8.70;;;;;;;32.08;44.05;98933.84;67855;1254;1016452;-65
2023/09/18 07:39:57;;;;;;;20.50;8.20;;;;;;;32.32;43.48;98938.98;67840;1276;1016434;-66
2023/09/18 07:42:59;;;;;;;20.10;8.50;;;;;;;32.41;43.50;98931.76;67850;1276;1016301;-66
2023/09/18 07:46:02;;;;;;;20.40;8.70;;;;;;;32.50;43.55;98929.21;67920;1276;1016421;-67
2023/09/18 07:49:05;;;;;;;20.50;8.40;;;;;;;32.66;42.91;98927.83;67878;1276;1016375;-65
2023/09/18 07:52:07;;;;;;;18.70;8.30;;;;;;;32.78;42.96;98922.73;67854;1276;1019493;-66
2023/09/18 07:55:10;;;;;;;18.80;8.30;;;;;;;32.99;41.90;98921.45;67859;1276;1016490;-65
2023/09/18 07:58:13;;;;;;;19.20;8.20;;;;;;;33.05;41.93;98923.66;67901;1276;1018083;-65
2023/09/18 08:01:17;;;;;;;20.70;8.60;;;;;;;33.11;41.79;98921.71;67884;1276;1016485;-65
2023/09/18 08:04:19;;;;;;;20.20;7.70;;;;;;;33.40;40.82;98915.20;67837;1276;1016124;-66
2023/09/18 08:07:22;;;;;;;20.80;8.20;;;;;;;33.49;41.47;98918.40;67845;1276;1016466;-66
2023/09/18 08:10:24;;;;;;;19.40;8.70;;;;;;;33.48;40.88;98915.23;67893;1276;1016424;-67
2023/09/18 08:13:27;;;;;;;20.30;8.00;;;;;;;33.54;41.15;98911.33;67857;1276;1017751;-66
2023/09/18 08:16:30;;;;;;;21.10;8.30;;;;;;;33.69;40.67;98904.66;67849;1259;1016514;-66
2023/09/18 08:19:32;;;;;;;20.20;8.20;;;;;;;33.83;40.13;98905.85;67894;1276;1018782;-66
2023/09/18 08:22:35;;;;;;;18.80;8.20;;;;;;;34.00;39.93;98899.91;67863;1276;1016238;-65
2023/09/18 08:25:37;;;;;;;20.50;7.90;;;;;;;34.32;39.92;98897.80;67846;1276;1016864;-65
2023/09/18 08:28:43;;;;;;;21.60;7.40;;;;;;;34.61;39.72;98895.92;67806;1276;1016379;-66
2023/09/18 08:31:45;;;;;;;20.30;8.30;;;;;;;34.74;38.57;98894.31;67886;1276;1016478;-66
2023/09/18 08:34:48;;;;;;;19.70;8.40;;;;;;;34.77;38.84;98891.19;67861;1276;1017781;-66
2023/09/18 08:37:50;;;;;;;20.20;7.90;;;;;;;34.89;38.63;98889.09;67884;1276;1016436;-65
2023/09/18 08:40:52;;;;;;;19.40;7.60;;;;;;;34.97;38.52;98883.59;67866;1276;1015960;-66
2023/09/18 08:43:55;;;;;;;21.10;8.60;;;;;;;35.01;38.64;98880.54;67883;1276;1016398;-66
2023/09/18 08:46:57;;;;;;;20.80;8.30;;;;;;;35.29;37.85;98880.35;67859;1276;1016498;-66
2023/09/18 08:50:00;;;;;;;22.20;9.10;;;;;;;35.35;37.65;98881.56;67838;1276;1016576;-65
2023/09/18 08:53:02;;;;;;;21.60;8.30;;;;;;;35.36;37.69;98875.59;67841;1276;1016364;-65
2023/09/18 08:56:04;;;;;;;22.00;8.40;;;;;;;35.59;36.99;98869.91;67881;1276;1017181;-66
2023/09/18 08:59:07;;;;;;;20.60;8.20;;;;;;;35.82;37.25;98865.52;67888;1276;1016273;-66
2023/09/18 09:02:11;;;;;;;22.20;8.10;;;;;;;36.11;36.80;98859.94;67879;1276;1016055;-66
2023/09/18 09:05:13;;;;;;;22.20;8.50;;;;;;;36.21;36.55;98859.42;67820;1276;1016431;-66
2023/09/18 09:08:16;;;;;;;20.30;8.10;;;;;;;36.32;36.49;98856.89;67851;1276;1016270;-65
2023/09/18 09:11:19;;;;;;;19.20;7.70;;;;;;;36.36;35.90;98858.02;67776;1276;1148709;-66
2023/09/18 09:14:28;;;;;;;19.60;8.10;;;;;;;36.24;35.82;98856.70;67868;1276;1016349;-65
2023/09/18 09:17:30;;;;;;;19.90;7.70;;;;;;;36.41;35.70;98854.41;67842;1276;1018363;-65
2023/09/18 09:20:32;;;;;;;21.50;8.30;;;;;;;36.53;35.64;98856.22;67874;1276;1016434;-66
2023/09/18 09:23:35;;;;;;;18.20;7.70;;;;;;;36.60;35.33;98853.86;67896;1276;1016932;-66
2023/09/18 09:26:37;;;;;;;20.60;8.40;;;;;;;36.60;34.94;98850.20;67891;1276;1016569;-66
2023/09/18 09:29:39;;;;;;;19.60;7.70;;;;;;;36.58;34.83;98851.34;67886;1276;1016283;-65
2023/09/18 09:32:42;;;;;;;21.90;7.90;;;;;;;36.65;34.66;98849.20;67828;1276;1016545;-65
2023/09/18 09:35:45;;;;;;;18.90;7.70;;;;;;;36.70;34.44;98849.17;67857;1276;1016428;-66
2023/09/18 09:38:47;;;;;;;19.90;7.70;;;;;;;36.76;33.89;98853.48;67880;1276;1016346;-66
2023/09/18 09:41:50;;;;;;;17.80;7.20;;;;;;;36.79;33.72;98846.34;67866;1276;1016425;-65
2023/09/18 09:48:24;;;;;;;18.50;7.40;;;;;;;37.18;33.75;98835.86;67831;1276;1015973;-66
2023/09/18 09:51:27;;;;;;;21.10;7.50;;;;;;;37.21;32.89;98839.70;67851;1276;1016526;-67
2023/09/18 09:54:29;;;;;;;20.90;7.40;;;;;;;37.26;32.70;98834.69;67846;1276;1016492;-66
2023/09/18 09:57:32;;;;;;;22.10;7.40;;;;;;;37.42;32.54;98833.44;67889;1276;1016559;-65
2023/09/18 10:00:42;;;;;;;21.70;7.40;;;;;;;37.42;32.62;98836.11;67876;1276;1016287;-66
2023/09/18 10:03:45;;;;;;;25.70;7.00;;;;;;;37.51;32.16;98832.69;67848;1276;1016240;-66
2023/09/18 10:06:47;;;;;;;18.50;6.60;;;;;;;37.40;31.14;98830.96;67851;1276;1018265;-66
2023/09/18 10:09:50;;;;;;;19.40;6.70;;;;;;;37.31;31.45;98831.16;67854;1276;1016395;-66
2023/09/18 10:12:53;;;;;;;16.00;6.00;;;;;;;37.17;31.12;98828.20;67903;1276;1016409;-66
2023/09/18 10:15:55;;;;;;;17.10;6.30;;;;;;;37.04;31.17;98827.34;67858;1276;1016361;-66
2023/09/18 10:18:59;;;;;;;17.00;6.30;;;;;;;37.07;31.34;98819.48;67829;1276;1016051;-66
2023/09/18 10:22:05;;;;;;;16.90;6.00;;;;;;;37.47;31.23;98811.23;67841;1276;1016564;-65
2023/09/18 10:25:09;;;;;;;15.50;5.90;;;;;;;37.65;30.55;98803.94;67848;1276;1017389;-66
2023/09/18 10:28:15;;;;;;;17.40;5.50;;;;;;;37.86;30.19;98794.88;67872;1276;1016745;-65
2023/09/18 10:31:17;;;;;;;14.90;5.70;;;;;;;37.83;29.81;98791.92;67854;1276;1016509;-66
2023/09/18 10:34:20;;;;;;;14.90;5.60;;;;;;;37.97;29.58;98786.55;67846;1276;1016789;-66
2023/09/18 10:37:22;;;;;;;17.50;5.50;;;;;;;37.98;29.84;98782.13;67849;1276;1018939;-66
2023/09/18 10:40:26;;;;;;;17.50;5.80;;;;;;;38.08;29.69;98785.06;67854;1276;1016458;-66
2023/09/18 10:43:28;;;;;;;16.20;5.70;;;;;;;38.41;29.04;98781.31;67905;1276;1016466;-66
2023/09/18 10:46:31;;;;;;;13.60;5.20;;;;;;;38.50;28.59;98776.13;67881;1276;1016596;-65
2023/09/18 10:49:34;;;;;;;13.50;5.40;;;;;;;38.43;28.94;98770.08;67852;1276;1016412;-65
2023/09/18 10:52:37;;;;;;;16.00;5.30;;;;;;;38.44;28.71;98767.06;67867;1276;1016380;-65
2023/09/18 10:55:39;;;;;;;13.90;5.50;;;;;;;38.57;28.78;98767.06;67905;1276;1016446;-66
2023/09/18 10:58:42;;;;;;;14.40;5.20;;;;;;;38.63;28.12;98763.23;67866;1276;1016517;-66
2023/09/18 11:01:44;;;;;;;14.00;5.70;;;;;;;38.66;28.03;98764.75;67840;1276;1016518;-66
2023/09/18 11:04:47;;;;;;;18.80;6.20;;;;;;;38.46;27.62;98765.80;67892;1276;1016371;-66
2023/09/18 11:07:49;;;;;;;14.90;5.70;;;;;;;38.37;27.72;98760.94;67908;1276;1016302;-66
2023/09/18 11:10:54;;;;;;;16.80;5.70;;;;;;;38.37;28.02;98755.52;67862;1276;1016560;-66
2023/09/18 11:13:57;;;;;;;15.70;5.90;;;;;;;38.54;27.50;98756.77;67888;1276;1016413;-66
2023/09/18 11:17:00;;;;;;;16.30;6.00;;;;;;;38.34;27.63;98753.88;67859;1276;1016462;-66
2023/09/18 11:20:04;;;;;;;18.00;6.20;;;;;;;38.19;27.79;98750.35;67855;1276;1016463;-66
2023/09/18 11:23:08;;;;;;;17.40;6.30;;;;;;;38.40;27.78;98749.33;67850;1276;1019860;-66
2023/09/18 11:26:10;;;;;;;19.20;6.50;;;;;;;38.55;27.56;98747.79;67861;1276;1016609;-66
2023/09/18 11:29:13;;;;;;;17.50;6.50;;;;;;;38.43;27.47;98740.39;67889;1261;1016130;-66
2023/09/18 11:32:16;;;;;;;19.40;7.00;;;;;;;38.55;27.64;98741.70;67835;1276;1016480;-66
2023/09/18 11:35:18;;;;;;;18.00;6.80;;;;;;;38.77;27.35;98739.56;67863;1276;1016252;-66
2023/09/18 11:38:22;;;;;;;16.40;6.30;;;;;;;38.83;27.34;98729.77;67844;1275;1016747;-66
2023/09/18 11:41:26;;;;;;;19.60;6.80;;;;;;;39.07;27.67;98734.75;67887;1275;1016813;-66
2023/09/18 11:44:28;;;;;;;18.90;7.00;;;;;;;39.25;26.86;98734.04;67859;1275;1016432;-67
2023/09/18 11:47:32;;;;;;;18.90;6.90;;;;;;;39.10;26.89;98736.92;67911;1275;1016788;-67
2023/09/18 11:50:35;;;;;;;16.90;6.60;;;;;;;38.54;27.05;98735.14;67931;1275;1016454;-65
2023/09/18 11:53:38;;;;;;;17.20;6.40;;;;;;;38.23;27.57;98732.66;67918;1275;1016666;-66
2023/09/18 11:56:40;;;;;;;17.30;6.40;;;;;;;38.55;28.19;98733.11;67728;1275;1016338;-66
2023/09/18 11:59:43;;;;;;;18.60;6.60;;;;;;;38.40;27.68;98731.30;67751;1275;1016404;-66
2023/09/18 12:02:46;;;;;;;18.40;6.70;;;;;;;38.09;28.02;98726.49;67837;1275;1016173;-66
2023/09/18 12:05:49;;;;;;;18.40;6.60;;;;;;;38.11;28.23;98723.35;67875;1275;1016384;-65
2023/09/18 12:08:51;;;;;;;17.10;6.40;;;;;;;38.38;27.95;98724.46;67885;1275;1016406;-65
2023/09/18 12:11:55;;;;;;;16.90;6.70;;;;;;;38.79;28.04;98717.67;67835;1260;1016220;-66
2023/09/18 12:14:58;;;;;;;17.40;6.80;;;;;;;39.15;27.97;98716.54;68080;1276;1016165;-66
2023/09/18 12:18:00;;;;;;;19.30;7.10;;;;;;;39.23;27.64;98709.83;67783;1276;1017856;-65
2023/09/18 12:21:04;;;;;;;19.00;7.20;;;;;;;39.16;27.63;98704.43;67770;1253;1016533;-65
2023/09/18 12:24:07;;;;;;;19.40;7.20;;;;;;;39.06;27.96;98700.53;67789;1276;1016562;-66
2023/09/18 12:27:09;;;;;;;19.80;7.20;;;;;;;38.89;27.87;98700.69;67894;1276;1016549;-66
2023/09/18 12:30:20;;;;;;;20.00;7.00;;;;;;;38.57;28.13;98697.33;67911;1276;1016411;-65
2023/09/18 12:33:22;;;;;;;19.40;7.60;;;;;;;38.55;28.47;98696.13;67848;1276;1016635;-66
2023/09/18 12:36:25;;;;;;;18.30;7.00;;;;;;;38.61;28.24;98688.32;67850;1276;1016355;-65
2023/09/18 12:39:27;;;;;;;19.00;7.60;;;;;;;38.24;28.35;98683.80;67853;1276;1016711;-66
2023/09/18 12:42:29;;;;;;;19.80;7.40;;;;;;;38.42;28.54;98677.12;67875;1276;1016412;-66
2023/09/18 12:45:32;;;;;;;18.40;7.20;;;;;;;38.77;28.24;98676.92;67833;1276;1016617;-66
2023/09/18 12:48:34;;;;;;;19.60;7.20;;;;;;;38.88;27.80;98672.48;67830;1276;1016689;-65
2023/09/18 12:51:37;;;;;;;17.80;6.70;;;;;;;39.07;27.41;98672.13;67824;1276;1016252;-66
2023/09/18 12:54:39;;;;;;;18.90;7.10;;;;;;;38.75;27.49;98664.80;67875;1276;1016113;-66
2023/09/18 12:57:42;;;;;;;20.10;7.40;;;;;;;38.38;27.69;98660.64;67869;1276;1016527;-66
2023/09/18 13:00:44;;;;;;;19.20;7.30;;;;;;;37.94;27.70;98657.92;67859;1276;1016525;-66
2023/09/18 13:03:46;;;;;;;18.20;7.40;;;;;;;37.87;28.34;98655.11;67844;1276;1016349;-65
2023/09/18 13:06:49;;;;;;;19.20;7.30;;;;;;;38.23;28.26;98642.57;67804;1276;1016484;-66
2023/09/18 13:09:51;;;;;;;20.30;8.40;;;;;;;38.12;27.46;98640.09;67873;1276;1016405;-66
2023/09/18 13:12:55;;;;;;;18.90;7.60;;;;;;;38.05;27.70;98635.56;67886;1276;1016539;-66
2023/09/18 13:15:59;;;;;;;19.10;7.30;;;;;;;38.27;27.85;98630.58;67891;1276;1016444;-65
2023/09/18 13:19:04;;;;;;;18.60;7.40;;;;;;;38.21;27.86;98626.44;67855;1273;1019637;-65
2023/09/18 13:22:06;;;;;;;20.90;7.70;;;;;;;38.38;27.50;98625.48;67874;1273;1016344;-66
2023/09/18 13:25:08;;;;;;;17.30;7.00;;;;;;;38.36;26.94;98626.27;67802;1270;1016439;-65
2023/09/18 13:28:11;;;;;;;21.10;7.00;;;;;;;38.23;27.33;98623.91;67815;1276;1016550;-65
2023/09/18 13:31:13;;;;;;;17.90;7.20;;;;;;;38.07;27.19;98623.69;67848;1269;1016781;-65
2023/09/18 13:34:17;;;;;;;18.30;7.30;;;;;;;38.13;27.59;98615.00;67848;1276;1016344;-65
2023/09/18 13:37:20;;;;;;;20.50;7.70;;;;;;;38.38;27.28;98610.70;67882;1273;1016373;-65
2023/09/18 13:40:23;;;;;;;21.80;7.70;;;;;;;38.51;27.06;98610.84;67761;1276;1016425;-66
2023/09/18 13:43:27;;;;;;;19.30;8.10;;;;;;;38.29;26.96;98608.98;67756;1276;1016415;-65
2023/09/18 13:46:29;;;;;;;18.30;7.10;;;;;;;38.04;27.04;98600.74;67744;1276;1016563;-65
2023/09/18 13:49:32;;;;;;;18.90;7.70;;;;;;;38.01;27.19;98599.23;67751;1276;1016409;-65
2023/09/18 13:52:34;;;;;;;21.90;7.50;;;;;;;38.14;27.24;98598.59;67694;1276;1016482;-65
2023/09/18 13:55:37;;;;;;;19.60;7.00;;;;;;;38.29;26.76;98596.84;67710;1276;1016728;-65
2023/09/18 13:58:41;;;;;;;20.10;6.80;;;;;;;38.10;26.68;98595.70;67722;1276;1016539;-65